createdAt,value
2023-02-11T00:04:55.593Z,102957.94
2023-02-11T00:14:56.962Z,102966.47
2023-02-11T00:24:58.515Z,102946.03
2023-02-11T00:35:00.088Z,102959.06
2023-02-11T00:45:02.430Z,102953.91
2023-02-11T00:55:04.131Z,102928.34
2023-02-11T01:05:06.187Z,102951.50
2023-02-11T01:15:08.848Z,102939.44
2023-02-11T01:25:10.626Z,102943.63
2023-02-11T01:35:12.121Z,102959.13
2023-02-11T01:45:44.569Z,102938.53
2023-02-11T01:56:04.540Z,102917.91
2023-02-11T02:06:24.732Z,102929.97
2023-02-11T02:16:37.029Z,102921.22
2023-02-11T02:27:05.654Z,102902.25
2023-02-11T02:37:20.185Z,102901.34
2023-02-11T02:47:21.618Z,102899.50
2023-02-11T02:57:47.823Z,102891.56
2023-02-11T03:08:10.500Z,102856.41
2023-02-11T03:18:15.997Z,102879.31
2023-02-11T03:28:29.598Z,102881.91
2023-02-11T03:38:35.354Z,102903.34
2023-02-11T03:48:41.610Z,102888.88
2023-02-11T03:58:45.848Z,102874.84
2023-02-11T04:08:47.306Z,102875.63
2023-02-11T04:18:48.926Z,102874.75
2023-02-11T04:28:50.360Z,102882.41
2023-02-11T04:38:51.701Z,102913.91
2023-02-11T04:48:53.221Z,102903.69
2023-02-11T04:58:54.737Z,102880.63
2023-02-11T05:08:56.108Z,102886.59
2023-02-11T05:18:58.481Z,102884.00
2023-02-11T05:28:59.949Z,102874.69
2023-02-11T05:39:01.528Z,102875.41
2023-02-11T05:49:03.353Z,102869.38
2023-02-11T05:59:04.729Z,102857.25
2023-02-11T06:09:06.093Z,102874.41
2023-02-11T06:19:07.918Z,102877.91
2023-02-11T06:29:09.599Z,102877.03
2023-02-11T06:39:12.956Z,102866.53
2023-02-11T06:49:14.424Z,102883.72
2023-02-11T06:59:17.666Z,102890.53
2023-02-11T07:09:19.157Z,102887.16
2023-02-11T07:19:20.663Z,102890.53
2023-02-11T07:29:22.217Z,102905.16
2023-02-11T07:39:27.294Z,102907.66
2023-02-11T07:49:29.333Z,102919.13
2023-02-11T07:59:30.784Z,102913.31
2023-02-11T08:09:34.499Z,102917.72
2023-02-11T08:19:36.046Z,102941.19
2023-02-11T08:29:37.539Z,102945.19
2023-02-11T08:39:39.029Z,102947.03
2023-02-11T08:49:42.386Z,102952.28
2023-02-11T08:59:43.944Z,102947.38
2023-02-11T09:09:45.312Z,102966.66
2023-02-11T09:19:46.734Z,102964.31
2023-02-11T09:29:48.263Z,102980.25
2023-02-11T09:39:49.694Z,102989.25
2023-02-11T09:49:57.185Z,102996.31
2023-02-11T09:59:59.209Z,103000.94
2023-02-11T10:10:13.130Z,103016.22
2023-02-11T10:20:23.310Z,103012.19
2023-02-11T10:30:24.855Z,103015.06
2023-02-11T10:40:30.172Z,103026.56
2023-02-11T10:50:34.889Z,103031.06
2023-02-11T11:00:40.871Z,103039.00
2023-02-11T11:10:45.788Z,103049.31
2023-02-11T11:20:58.802Z,103062.34
2023-02-11T11:31:00.775Z,103057.41
2023-02-11T11:41:19.507Z,103050.25
2023-02-11T11:51:21.691Z,103043.38
2023-02-11T12:01:48.259Z,103043.63
2023-02-11T12:11:49.583Z,103042.06
2023-02-11T12:22:09.628Z,103056.84
2023-02-11T12:32:23.166Z,103051.03
2023-02-11T12:42:49.471Z,103046.16
2023-02-11T12:53:22.010Z,103033.59
2023-02-11T13:03:52.891Z,103015.28
2023-02-11T13:14:00.735Z,103018.13
2023-02-11T13:24:09.199Z,103011.78
2023-02-11T13:34:46.115Z,103031.75
2023-02-11T13:44:48.295Z,103037.31
2023-02-11T13:54:52.829Z,103017.53
2023-02-11T14:05:37.702Z,103014.38
2023-02-11T14:15:39.912Z,103004.53
2023-02-11T14:25:43.928Z,103009.59
2023-02-11T14:36:00.961Z,103003.75
2023-02-11T14:46:03.717Z,103002.94
2023-02-11T14:56:18.459Z,103020.31
2023-02-11T15:06:26.686Z,103020.44
2023-02-11T15:16:29.013Z,103026.69
2023-02-11T15:26:30.470Z,103021.53
2023-02-11T15:36:33.139Z,103034.34
2023-02-11T15:46:39.867Z,103033.69
2023-02-11T15:56:44.172Z,103045.75
2023-02-11T16:06:48.146Z,103034.53
2023-02-11T16:16:53.393Z,103047.56
2023-02-11T16:26:59.529Z,103056.84
2023-02-11T16:37:04.440Z,103069.88
2023-02-11T16:47:13.629Z,103090.34
2023-02-11T16:57:27.550Z,103087.56
2023-02-11T17:07:31.755Z,103096.88
2023-02-11T17:17:33.253Z,103101.91
2023-02-11T17:27:34.676Z,103102.88
2023-02-11T17:37:36.227Z,103100.03
2023-02-11T17:47:37.706Z,103112.84
2023-02-11T17:57:39.178Z,103121.28
2023-02-11T18:07:40.951Z,103142.63
2023-02-11T18:17:42.617Z,103155.53
2023-02-11T18:27:44.602Z,103153.75
2023-02-11T18:37:46.267Z,103155.44
2023-02-11T18:47:47.735Z,103163.34
2023-02-11T18:57:49.190Z,103171.91
2023-02-11T19:07:51.144Z,103180.38
2023-02-11T19:17:53.102Z,103195.69
2023-02-11T19:27:54.609Z,103196.41
2023-02-11T19:37:56.090Z,103204.16
2023-02-11T19:47:57.903Z,103215.38
2023-02-11T19:57:59.415Z,103222.69
2023-02-11T20:08:01.102Z,103231.19
2023-02-11T20:18:02.579Z,103243.03
2023-02-11T20:28:04.329Z,103242.13
2023-02-11T20:38:05.826Z,103247.19
2023-02-11T20:48:07.269Z,103268.63
2023-02-11T20:58:09.582Z,103261.78
2023-02-11T21:08:11.568Z,103289.78
2023-02-11T21:18:13.276Z,103298.13
2023-02-11T21:28:14.920Z,103289.50
2023-02-11T21:38:16.541Z,103285.06
2023-02-11T21:48:18.821Z,103298.69
2023-02-11T21:58:20.178Z,103297.22
2023-02-11T22:08:21.626Z,103292.06
2023-02-11T22:18:23.107Z,103291.13
2023-02-11T22:28:26.123Z,103298.03
2023-02-11T22:38:32.344Z,103298.84
2023-02-11T22:48:35.151Z,103302.16
2023-02-11T22:58:37.195Z,103310.69
2023-02-11T23:08:40.320Z,103310.56
2023-02-11T23:18:43.674Z,103318.44
2023-02-11T23:28:46.013Z,103327.06
2023-02-11T23:38:48.210Z,103337.09
2023-02-11T23:48:50.951Z,103342.25
2023-02-11T23:58:54.718Z,103341.13
